createdAt,value
2023-05-26T00:01:55.853Z,2.60
2023-05-26T00:05:02.878Z,2.83
2023-05-26T00:08:09.522Z,2.17
2023-05-26T00:11:17.170Z,2.35
2023-05-26T00:14:22.360Z,2.30
2023-05-26T00:17:28.146Z,2.83
2023-05-26T00:20:33.631Z,2.60
2023-05-26T00:23:38.792Z,2.30
2023-05-26T00:26:45.272Z,2.15
2023-05-26T00:29:50.834Z,2.03
2023-05-26T00:32:58.702Z,2.05
2023-05-26T00:36:04.180Z,2.45
2023-05-26T00:39:09.414Z,2.30
2023-05-26T00:42:15.952Z,2.40
2023-05-26T00:45:21.203Z,1.85
2023-05-26T00:48:26.448Z,2.30
2023-05-26T00:51:32.652Z,2.10
2023-05-26T00:54:37.970Z,2.20
2023-05-26T00:57:44.757Z,2.13
2023-05-26T01:00:50.172Z,2.10
2023-05-26T01:03:55.934Z,2.10
2023-05-26T01:07:01.459Z,2.13
2023-05-26T01:10:07.501Z,2.00
2023-05-26T01:13:17.796Z,2.00
2023-05-26T01:16:25.453Z,2.38
2023-05-26T01:20:08.273Z,2.30
2023-05-26T01:23:48.111Z,2.40
2023-05-26T01:27:06.007Z,2.58
2023-05-26T01:30:15.540Z,2.08
2023-05-26T01:33:20.910Z,2.25
2023-05-26T01:36:26.656Z,2.50
2023-05-26T01:39:32.279Z,2.30
2023-05-26T01:42:41.828Z,2.13
2023-05-26T01:46:02.508Z,2.40
2023-05-26T01:49:09.700Z,2.40
2023-05-26T01:52:16.393Z,2.20
2023-05-26T01:55:22.746Z,2.40
2023-05-26T01:58:28.525Z,2.17
2023-05-26T02:01:36.707Z,2.13
2023-05-26T02:04:42.491Z,2.17
2023-05-26T02:07:49.329Z,2.28
2023-05-26T02:10:54.530Z,2.30
2023-05-26T02:13:59.721Z,2.58
2023-05-26T02:17:07.369Z,2.30
2023-05-26T02:20:14.906Z,2.10
2023-05-26T02:23:20.134Z,2.47
2023-05-26T02:26:25.218Z,2.40
2023-05-26T02:29:30.450Z,2.50
2023-05-26T02:32:40.157Z,2.28
2023-05-26T02:35:46.216Z,2.20
2023-05-26T02:38:51.700Z,2.15
2023-05-26T02:41:57.030Z,2.58
2023-05-26T02:45:02.449Z,2.15
2023-05-26T02:48:09.459Z,2.38
2023-05-26T02:51:14.511Z,2.47
2023-05-26T02:54:19.790Z,2.30
2023-05-26T02:57:24.908Z,2.60
2023-05-26T03:00:30.240Z,1.85
2023-05-26T03:03:37.253Z,1.90
2023-05-26T03:06:43.059Z,2.20
2023-05-26T03:09:50.260Z,3.45
2023-05-26T03:12:55.725Z,2.65
2023-05-26T03:16:02.795Z,2.17
2023-05-26T03:19:09.406Z,1.90
2023-05-26T03:22:39.315Z,2.25
2023-05-26T03:25:39.753Z,2.08
2023-05-26T03:28:44.962Z,2.15
2023-05-26T03:31:50.924Z,2.88
2023-05-26T03:34:57.514Z,2.30
2023-05-26T03:38:02.801Z,2.03
2023-05-26T03:41:08.048Z,2.40
2023-05-26T03:44:22.951Z,1.77
2023-05-26T03:47:28.120Z,2.65
2023-05-26T03:50:34.706Z,2.30
2023-05-26T03:53:39.850Z,2.20
2023-05-26T03:56:45.425Z,2.00
2023-05-26T03:59:50.629Z,2.45
2023-05-26T04:02:56.271Z,2.20
2023-05-26T04:06:02.896Z,2.15
2023-05-26T04:09:08.649Z,1.77
2023-05-26T04:12:14.273Z,2.00
2023-05-26T04:15:21.220Z,2.15
2023-05-26T04:18:26.338Z,1.92
2023-05-26T04:21:33.926Z,2.10
2023-05-26T04:24:39.241Z,2.10
2023-05-26T04:27:44.637Z,1.90
2023-05-26T04:31:04.728Z,1.60
2023-05-26T04:34:27.577Z,1.90
2023-05-26T04:37:44.266Z,1.98
2023-05-26T04:40:49.598Z,1.63
2023-05-26T04:43:55.562Z,1.70
2023-05-26T04:47:01.772Z,2.10
2023-05-26T04:50:13.790Z,1.70
2023-05-26T04:53:20.892Z,1.70
2023-05-26T04:56:27.302Z,1.52
2023-05-26T04:59:38.806Z,1.10
2023-05-26T05:02:44.816Z,1.40
2023-05-26T05:05:55.821Z,1.30
2023-05-26T05:09:02.475Z,1.23
2023-05-26T05:12:09.614Z,1.40
2023-05-26T05:15:16.293Z,1.25
2023-05-26T05:18:21.534Z,1.65
2023-05-26T05:21:26.755Z,1.40
2023-05-26T05:24:36.855Z,1.90
2023-05-26T05:27:42.197Z,1.15
2023-05-26T05:30:47.671Z,1.50
2023-05-26T05:33:53.204Z,1.20
2023-05-26T05:36:58.389Z,1.13
2023-05-26T05:40:05.371Z,1.20
2023-05-26T05:43:10.875Z,1.27
2023-05-26T05:46:16.332Z,1.52
2023-05-26T05:49:47.849Z,1.00
2023-05-26T05:52:54.375Z,1.30
2023-05-26T05:56:04.540Z,1.38
2023-05-26T05:59:11.988Z,1.30
2023-05-26T06:02:17.437Z,1.23
2023-05-26T06:05:23.225Z,1.40
2023-05-26T06:08:28.443Z,1.27
2023-05-26T06:11:36.114Z,1.30
2023-05-26T06:14:41.528Z,1.27
2023-05-26T06:17:47.024Z,3.03
2023-05-26T06:20:52.739Z,1.30
2023-05-26T06:23:58.219Z,1.50
2023-05-26T06:27:05.306Z,1.30
2023-05-26T06:30:12.311Z,1.40
2023-05-26T06:33:19.901Z,1.60
2023-05-26T06:36:25.197Z,1.33
2023-05-26T06:39:31.798Z,1.55
2023-05-26T06:42:38.364Z,1.45
2023-05-26T06:45:43.762Z,1.50
2023-05-26T06:48:48.970Z,1.60
2023-05-26T06:52:02.373Z,1.20
2023-05-26T06:55:08.441Z,2.03
2023-05-26T06:58:16.957Z,1.30
2023-05-26T07:01:22.426Z,2.35
2023-05-26T07:04:28.979Z,1.50
2023-05-26T07:07:34.033Z,1.27
2023-05-26T07:10:39.421Z,1.40
2023-05-26T07:13:47.175Z,1.40
2023-05-26T07:16:52.498Z,1.23
2023-05-26T07:19:58.442Z,1.55
2023-05-26T07:23:04.161Z,1.63
2023-05-26T07:26:09.512Z,1.50
2023-05-26T07:29:16.203Z,1.25
2023-05-26T07:32:21.355Z,1.75
2023-05-26T07:35:26.897Z,1.42
2023-05-26T07:38:33.005Z,1.42
2023-05-26T07:41:38.434Z,1.52
2023-05-26T07:44:44.887Z,1.30
2023-05-26T07:47:50.130Z,1.30
2023-05-26T07:50:55.253Z,1.15
2023-05-26T07:54:00.908Z,1.65
2023-05-26T07:57:12.775Z,1.33
2023-05-26T08:00:25.356Z,1.05
2023-05-26T08:03:30.687Z,1.30
2023-05-26T08:06:36.772Z,1.25
2023-05-26T08:09:41.933Z,1.77
2023-05-26T08:12:47.175Z,1.13
2023-05-26T08:15:53.663Z,1.50
2023-05-26T08:18:59.047Z,2.10
2023-05-26T08:22:04.321Z,1.50
2023-05-26T08:25:09.916Z,0.90
2023-05-26T08:28:15.173Z,1.33
2023-05-26T08:31:22.144Z,1.40
2023-05-26T08:34:27.286Z,1.52
2023-05-26T08:37:32.495Z,1.05
2023-05-26T08:40:37.634Z,1.00
2023-05-26T08:43:55.823Z,1.23
2023-05-26T08:47:09.150Z,1.10
2023-05-26T08:50:15.196Z,0.93
2023-05-26T08:53:21.463Z,0.90
2023-05-26T08:56:26.906Z,0.90
2023-05-26T08:59:32.596Z,0.82
2023-05-26T09:02:39.265Z,0.98
2023-05-26T09:05:44.422Z,1.00
2023-05-26T09:08:49.712Z,1.08
2023-05-26T09:11:57.847Z,1.02
2023-05-26T09:15:03.272Z,1.10
2023-05-26T09:18:13.128Z,1.08
2023-05-26T09:21:19.591Z,1.17
2023-05-26T09:24:26.712Z,1.17
2023-05-26T09:27:31.798Z,1.50
2023-05-26T09:30:38.833Z,1.30
2023-05-26T09:33:48.707Z,1.00
2023-05-26T09:36:53.849Z,1.00
2023-05-26T09:40:07.754Z,1.00
2023-05-26T09:43:13.967Z,1.08
2023-05-26T09:46:23.737Z,0.80
2023-05-26T09:49:30.417Z,0.95
2023-05-26T09:52:37.316Z,1.45
2023-05-26T09:55:44.701Z,1.20
2023-05-26T09:58:51.133Z,1.00
2023-05-26T10:01:56.643Z,1.13
2023-05-26T10:05:03.268Z,1.38
2023-05-26T10:08:09.282Z,1.70
2023-05-26T10:11:15.726Z,1.30
2023-05-26T10:14:21.299Z,0.80
2023-05-26T10:17:27.487Z,1.10
2023-05-26T10:20:35.310Z,1.13
2023-05-26T10:23:45.604Z,1.10
2023-05-26T10:26:56.629Z,1.10
2023-05-26T10:30:09.935Z,0.90
2023-05-26T10:33:16.548Z,0.85
2023-05-26T10:36:23.217Z,0.95
2023-05-26T10:39:28.404Z,1.02
2023-05-26T10:42:34.006Z,1.00
2023-05-26T10:45:46.917Z,0.98
2023-05-26T10:48:58.973Z,1.33
2023-05-26T10:52:11.755Z,1.02
2023-05-26T10:55:31.290Z,1.02
2023-05-26T10:58:38.706Z,1.10
2023-05-26T11:01:52.520Z,0.90
2023-05-26T11:04:58.204Z,0.70
2023-05-26T11:08:04.760Z,1.10
2023-05-26T11:11:12.156Z,0.77
2023-05-26T11:14:17.367Z,1.05
2023-05-26T11:17:23.756Z,0.80
2023-05-26T11:20:29.599Z,1.00
2023-05-26T11:23:38.836Z,0.85
2023-05-26T11:26:44.812Z,1.00
2023-05-26T11:29:50.934Z,0.90
2023-05-26T11:32:56.154Z,0.95
2023-05-26T11:36:08.749Z,0.90
2023-05-26T11:39:16.401Z,0.80
2023-05-26T11:42:21.710Z,1.10
2023-05-26T11:45:27.126Z,1.23
2023-05-26T11:48:40.577Z,0.98
2023-05-26T11:51:49.722Z,0.80
2023-05-26T11:54:56.259Z,1.00
2023-05-26T11:58:01.441Z,1.35
2023-05-26T12:01:07.911Z,0.65
2023-05-26T12:04:13.306Z,0.80
2023-05-26T12:07:31.948Z,0.98
2023-05-26T12:10:40.278Z,0.70
2023-05-26T12:13:45.676Z,0.93
2023-05-26T12:16:53.129Z,0.90
2023-05-26T12:19:58.652Z,1.05
2023-05-26T12:23:04.200Z,1.10
2023-05-26T12:26:24.967Z,1.10
2023-05-26T12:29:30.209Z,0.88
2023-05-26T12:32:35.550Z,1.08
2023-05-26T12:35:40.715Z,0.70
2023-05-26T12:38:46.004Z,0.90
2023-05-26T12:41:52.574Z,0.80
2023-05-26T12:44:57.673Z,0.90
2023-05-26T12:48:02.994Z,0.90
2023-05-26T12:51:08.280Z,0.93
2023-05-26T12:54:14.836Z,1.45
2023-05-26T12:57:21.367Z,1.30
2023-05-26T13:00:26.570Z,0.98
2023-05-26T13:03:32.376Z,0.85
2023-05-26T13:06:37.902Z,0.98
2023-05-26T13:09:43.748Z,1.00
2023-05-26T13:12:50.260Z,1.40
2023-05-26T13:15:55.904Z,0.90
2023-05-26T13:19:01.102Z,0.90
2023-05-26T13:22:06.357Z,0.90
2023-05-26T13:25:12.024Z,0.80
2023-05-26T13:28:18.541Z,0.98
2023-05-26T13:31:25.134Z,1.20
2023-05-26T13:34:30.391Z,0.90
2023-05-26T13:37:35.763Z,1.13
2023-05-26T13:40:42.062Z,0.80
2023-05-26T13:43:49.498Z,1.00
2023-05-26T13:46:54.745Z,0.90
2023-05-26T13:50:09.331Z,1.17
2023-05-26T13:53:25.569Z,1.08
2023-05-26T13:56:31.479Z,1.00
2023-05-26T13:59:37.979Z,1.40
2023-05-26T14:02:43.326Z,1.00
2023-05-26T14:05:48.540Z,0.90
2023-05-26T14:08:54.457Z,1.08
2023-05-26T14:11:59.610Z,1.02
2023-05-26T14:15:06.971Z,1.55
2023-05-26T14:18:15.824Z,1.00
2023-05-26T14:21:39.819Z,1.00
2023-05-26T14:24:45.985Z,1.33
2023-05-26T14:27:52.207Z,1.38
2023-05-26T14:30:58.827Z,0.93
2023-05-26T14:34:04.496Z,0.90
2023-05-26T14:37:10.109Z,1.00
2023-05-26T14:40:15.864Z,1.17
2023-05-26T14:43:21.553Z,1.00
2023-05-26T14:46:28.363Z,1.00
2023-05-26T14:49:34.128Z,0.90
2023-05-26T14:52:39.368Z,1.17
2023-05-26T14:55:44.693Z,1.23
2023-05-26T14:58:49.963Z,1.10
2023-05-26T15:01:56.552Z,1.08
2023-05-26T15:05:02.278Z,1.00
2023-05-26T15:08:07.692Z,1.25
2023-05-26T15:11:14.138Z,1.25
2023-05-26T15:14:19.202Z,1.20
2023-05-26T15:17:26.292Z,0.90
2023-05-26T15:20:33.912Z,1.00
2023-05-26T15:23:39.158Z,1.75
2023-05-26T15:26:44.290Z,0.90
2023-05-26T15:29:49.770Z,1.02
2023-05-26T15:32:56.663Z,1.23
2023-05-26T15:36:01.911Z,1.40
2023-05-26T15:39:07.132Z,1.30
2023-05-26T15:42:13.150Z,1.55
2023-05-26T15:45:18.392Z,2.72
2023-05-26T15:48:25.287Z,2.70
2023-05-26T15:51:30.452Z,1.38
2023-05-26T15:54:35.581Z,1.20
2023-05-26T15:57:40.753Z,1.20
2023-05-26T16:00:46.080Z,2.45
2023-05-26T16:03:52.588Z,1.30
2023-05-26T16:06:57.762Z,1.00
2023-05-26T16:10:02.890Z,1.25
2023-05-26T16:13:08.511Z,0.90
2023-05-26T16:16:14.033Z,1.40
2023-05-26T16:19:20.734Z,1.30
2023-05-26T16:22:25.950Z,1.30
2023-05-26T16:25:31.144Z,1.27
2023-05-26T16:28:36.441Z,1.50
2023-05-26T16:31:41.596Z,1.52
2023-05-26T16:34:48.213Z,1.27
2023-05-26T16:37:53.375Z,1.35
2023-05-26T16:40:59.583Z,1.20
2023-05-26T16:44:04.720Z,1.23
2023-05-26T16:47:12.835Z,1.30
2023-05-26T16:50:19.598Z,1.17
2023-05-26T16:53:24.710Z,1.27
2023-05-26T16:56:29.820Z,1.23
2023-05-26T16:59:34.939Z,1.10
2023-05-26T17:02:40.215Z,1.27
2023-05-26T17:05:46.952Z,1.30
2023-05-26T17:08:52.028Z,1.40
2023-05-26T17:11:58.207Z,1.27
2023-05-26T17:15:03.912Z,1.33
2023-05-26T17:18:09.593Z,1.30
2023-05-26T17:21:16.620Z,1.95
2023-05-26T17:24:22.022Z,2.10
2023-05-26T17:27:27.422Z,1.83
2023-05-26T17:30:33.060Z,2.05
2023-05-26T17:33:38.204Z,1.30
2023-05-26T17:36:45.104Z,1.52
2023-05-26T17:39:50.404Z,1.67
2023-05-26T17:42:55.870Z,1.70
2023-05-26T17:46:01.154Z,1.40
2023-05-26T17:49:06.448Z,1.10
2023-05-26T17:52:13.862Z,1.45
2023-05-26T17:55:20.486Z,1.52
2023-05-26T17:58:26.183Z,1.55
2023-05-26T18:01:31.276Z,2.33
2023-05-26T18:04:36.442Z,1.27
2023-05-26T18:07:42.934Z,1.27
2023-05-26T18:10:48.389Z,1.60
2023-05-26T18:13:53.867Z,1.80
2023-05-26T18:16:59.186Z,1.63
2023-05-26T18:20:04.866Z,1.52
2023-05-26T18:23:12.197Z,1.63
2023-05-26T18:26:17.577Z,1.60
2023-05-26T18:29:23.500Z,3.45
2023-05-26T18:32:28.969Z,2.97
2023-05-26T18:35:34.275Z,1.52
2023-05-26T18:38:41.253Z,2.00
2023-05-26T18:41:46.604Z,2.22
2023-05-26T18:44:52.142Z,1.63
2023-05-26T18:47:57.338Z,1.85
2023-05-26T18:51:03.433Z,2.10
2023-05-26T18:54:10.039Z,1.95
2023-05-26T18:57:15.257Z,2.17
2023-05-26T19:00:20.589Z,1.88
2023-05-26T19:03:26.397Z,2.17
2023-05-26T19:06:32.731Z,1.75
2023-05-26T19:09:39.561Z,1.98
2023-05-26T19:12:44.711Z,1.98
2023-05-26T19:15:50.213Z,1.70
2023-05-26T19:18:55.559Z,1.92
2023-05-26T19:22:01.189Z,2.08
2023-05-26T19:25:09.263Z,2.15
2023-05-26T19:28:18.159Z,1.55
2023-05-26T19:31:24.437Z,1.30
2023-05-26T19:34:29.885Z,1.60
2023-05-26T19:37:35.957Z,2.25
2023-05-26T19:40:42.895Z,1.70
2023-05-26T19:43:48.353Z,1.50
2023-05-26T19:46:55.861Z,1.50
2023-05-26T19:50:01.293Z,1.50
2023-05-26T19:53:06.527Z,1.50
2023-05-26T19:56:14.739Z,1.73
2023-05-26T19:59:19.902Z,1.60
2023-05-26T20:02:25.183Z,2.40
2023-05-26T20:05:30.287Z,2.25
2023-05-26T20:08:36.364Z,5.20
2023-05-26T20:11:42.912Z,3.38
2023-05-26T20:14:48.039Z,2.88
2023-05-26T20:17:53.366Z,3.05
2023-05-26T20:20:59.006Z,2.65
2023-05-26T20:24:04.193Z,2.63
2023-05-26T20:27:10.804Z,1.70
2023-05-26T20:30:16.133Z,1.58
2023-05-26T20:33:21.605Z,1.70
2023-05-26T20:36:26.982Z,1.77
2023-05-26T20:39:32.318Z,1.98
2023-05-26T20:42:38.760Z,1.60
2023-05-26T20:45:44.145Z,1.55
2023-05-26T20:48:49.234Z,2.20
2023-05-26T20:51:55.058Z,1.98
2023-05-26T20:55:00.615Z,1.88
2023-05-26T20:58:07.377Z,2.25
2023-05-26T21:01:13.158Z,2.00
2023-05-26T21:04:18.324Z,2.20
2023-05-26T21:07:23.639Z,1.70
2023-05-26T21:10:28.815Z,1.42
2023-05-26T21:13:35.391Z,1.38
2023-05-26T21:16:41.142Z,1.73
2023-05-26T21:19:46.529Z,1.20
2023-05-26T21:22:51.976Z,1.52
2023-05-26T21:25:57.358Z,1.40
2023-05-26T21:29:03.852Z,1.38
2023-05-26T21:32:09.301Z,1.52
2023-05-26T21:35:15.272Z,1.40
2023-05-26T21:38:20.311Z,1.42
2023-05-26T21:41:25.546Z,1.83
2023-05-26T21:44:32.109Z,1.20
2023-05-26T21:47:37.302Z,1.80
2023-05-26T21:50:42.553Z,1.50
2023-05-26T21:53:47.788Z,1.75
2023-05-26T21:56:52.933Z,1.73
2023-05-26T21:59:59.474Z,2.20
2023-05-26T22:03:04.944Z,2.10
2023-05-26T22:06:11.219Z,1.88
2023-05-26T22:09:16.455Z,1.50
2023-05-26T22:12:22.038Z,1.80
2023-05-26T22:15:29.129Z,1.80
2023-05-26T22:18:34.878Z,1.80
2023-05-26T22:21:39.943Z,2.22
2023-05-26T22:24:45.114Z,1.60
2023-05-26T22:27:50.518Z,1.50
2023-05-26T22:31:03.798Z,1.65
2023-05-26T22:34:08.943Z,1.77
2023-05-26T22:37:15.047Z,1.60
2023-05-26T22:40:20.212Z,1.52
2023-05-26T22:43:25.952Z,1.40
2023-05-26T22:46:32.644Z,1.48
2023-05-26T22:49:37.842Z,1.73
2023-05-26T22:52:42.883Z,1.58
2023-05-26T22:55:56.906Z,1.83
2023-05-26T22:59:06.215Z,2.08
2023-05-26T23:02:13.593Z,1.80
2023-05-26T23:05:18.753Z,2.00
2023-05-26T23:08:23.848Z,1.80
2023-05-26T23:11:28.925Z,2.28
2023-05-26T23:14:34.324Z,1.80
2023-05-26T23:17:41.069Z,1.60
2023-05-26T23:20:46.277Z,2.22
2023-05-26T23:23:51.772Z,1.90
2023-05-26T23:26:57.028Z,2.13
2023-05-26T23:30:02.127Z,1.85
2023-05-26T23:33:09.001Z,2.00
2023-05-26T23:36:14.283Z,2.08
2023-05-26T23:39:19.494Z,1.73
2023-05-26T23:42:24.698Z,1.60
2023-05-26T23:45:30.033Z,2.08
2023-05-26T23:48:36.499Z,1.50
2023-05-26T23:51:41.747Z,1.75
2023-05-26T23:54:46.973Z,1.88
2023-05-26T23:57:52.125Z,1.90
